Terminal Aerodrome Forecast
Issued by NWS

Home | Current Version | Previous Version | Text Only | Print | Product List | Glossary On
Versions: 1 2 3 4 5 6 7 8 9 10 11 12 13 14 15 16 17 18 19 20 21 22 23 24
000
FTUS44 KJAN 010500
TAFHKS
TAF
KHKS 010536Z 0106/0206 16004KT P6SM SCT070 SCT120
     FM011000 16003KT 6SM BR SCT007 BKN012
     FM011530 16007KT P6SM SCT040 SCT250
     FM012000 15008KT P6SM BKN250=

USA.gov is the U.S. government's official web portal to all federal, state and local government web resources and services.